Weather forecast for Bozoy (Бозой)

Russia, 588 m
N53.011, E104.880


Sounding

Red line — air temperature ˚C.
Blue line — thermal bubble temperature ˚C.
Green line — dew point temperature ˚C.
Wind speed is in meters per second.

Table forecast

GFS 0.25˚ model

temp. wind gust humid. clouds prec. press. hpbl
Sat24 00:00 -1 153.0 sse 1 1 69 100 0.0 1042 11
03:00 -2 43.0 ne 2 3 70 100 0.0 1041 42
06:00 -2 63.0 ene 2 4 71 100 0.0 1039 95
09:00 0 98.0 e 5 10 48 100 0.1 1037 539
12:00 3 116.0 ese 6 10 50 100 0.7 1033 961
15:00 5 113.0 ese 6 9 51 100 1.3 1029 845
18:00 4 119.0 ese 4 8 66 100 0.4 1027 647
21:00 2 84.0 e 3 6 84 100 1.6 1026 187
 
Sun25 00:00 2 34.0 ne 1 1 86 100 0.1 1025 13
03:00 0 65.0 ene 1 1 99 100 0.9 1024 231
06:00 0 288.0 wnw 1 3 99 100 0.8 1023 254
09:00 1 317.0 nw 2 5 92 100 0.8 1024 554
12:00 3 320.0 nw 5 7 66 100 0.0 1023 877
15:00 5 313.0 nw 5 7 59 100 0.0 1022 1267
18:00 4 343.0 nnw 5 7 58 100 0.0 1022 1211
21:00 1 341.0 nnw 5 8 69 100 0.0 1023 553
 
Mon26 00:00 -1 327.0 nnw 4 7 78 37 0.0 1024 168
03:00 -2 318.0 nw 2 4 82 100 0.0 1023 66
06:00 -3 281.0 w 2 2 82 36 0.0 1023 41
09:00 -0 307.0 nw 7 11 73 89 0.0 1023 903
12:00 3 313.0 nw 8 12 59 100 0.1 1021 1536
15:00 4 309.0 nw 10 13 59 100 0.3 1020 1701
18:00 4 306.0 nw 9 14 59 95 0.1 1021 1580
21:00 2 305.0 nw 7 14 82 76 0.2 1022 1151
 
Tue27 00:00 -0 316.0 nw 7 12 77 100 0.1 1024 830
03:00 -1 312.0 nw 6 11 80 16 0.1 1025 602
06:00 -3 293.0 wnw 4 7 90 77 0.0 1028 204
09:00 0 306.0 nw 5 7 67 100 0.0 1028 988
12:00 2 312.0 nw 5 7 54 100 0.1 1027 1600
15:00 5 315.0 nw 5 7 46 94 0.1 1024 1640
18:00 6 326.0 nw 5 6 41 86 0.0 1023 1708
21:00 2 351.0 n 3 5 60 5 0.0 1023 89
 
Wed28 00:00 -1 3.0 n 2 2 76 0 0.0 1024 12
03:00 -2 39.0 ne 1 1 79 3 0.0 1023 10
06:00 -2 54.0 ne 1 1 84 5 0.0 1023 10
09:00 1 38.0 ne 2 2 62 1 0.0 1023 326
12:00 7 324.0 nw 4 6 42 14 0.0 1022 1557
15:00 10 309.0 nw 5 6 38 100 0.0 1020 2267
18:00 8 301.0 wnw 7 6 54 45 0.1 1020 1283
21:00 4 316.0 nw 3 6 70 5 0.1 1021 161
 

0.026 s